Terminal Aerodrome Forecast
Issued by NWS

Home | Current Version | Previous Version | Text Only | Print | Product List | Glossary On
Versions: 1 2 3 4 5 6 7 8 9 10 11 12 13 14 15 16 17
048
FTUS44 KTSA 232320
TAFRVS
TAF
KRVS 232320Z 2400/2424 02007KT 2SM RA BR BKN007 BKN016 OVC023
     FM240600 VRB04KT 4SM -DZ BR OVC005
      TEMPO 2409/2413 1/2SM FG VV002
     FM241500 15006KT 3SM -RA VCTS BKN006CB
      TEMPO 2417/2421 2SM -TSRA BR BKN015CB
     FM242100 23012G22KT P6SM BKN025=

USA.gov is the U.S. government's official web portal to all federal, state and local government web resources and services.